createdAt,value
2023-03-24T00:01:07.389Z,112.75
2023-03-24T00:03:34.201Z,126.07
2023-03-24T00:06:03.876Z,109.88
2023-03-24T00:08:36.755Z,127.43
2023-03-24T00:11:09.173Z,109.82
2023-03-24T00:13:38.826Z,154.98
2023-03-24T00:16:10.375Z,107.75
2023-03-24T00:18:37.546Z,121.35
2023-03-24T00:21:04.807Z,107.78
2023-03-24T00:23:35.026Z,159.35
2023-03-24T00:26:03.238Z,111.78
2023-03-24T00:28:34.378Z,128.50
2023-03-24T00:31:02.601Z,109.88
2023-03-24T00:33:32.920Z,165.10
2023-03-24T00:36:05.693Z,109.63
2023-03-24T00:38:34.313Z,118.15
2023-03-24T00:41:01.704Z,103.45
2023-03-24T00:43:29.322Z,126.03
2023-03-24T00:46:01.880Z,107.38
2023-03-24T00:48:29.409Z,106.57
2023-03-24T00:50:56.401Z,111.82
2023-03-24T00:53:25.758Z,130.52
2023-03-24T00:55:52.374Z,108.03
2023-03-24T00:58:19.780Z,122.97
2023-03-24T01:00:48.288Z,110.03
2023-03-24T01:03:15.824Z,126.80
2023-03-24T01:05:48.005Z,111.70
2023-03-24T01:08:16.133Z,125.32
2023-03-24T01:10:51.046Z,113.28
2023-03-24T01:13:18.993Z,156.63
2023-03-24T01:15:46.292Z,110.40
2023-03-24T01:18:15.952Z,130.90
2023-03-24T01:20:50.006Z,110.18
2023-03-24T01:25:48.791Z,108.03
2023-03-24T01:28:25.483Z,162.05
2023-03-24T01:30:55.354Z,110.00
2023-03-24T01:33:25.329Z,128.27
2023-03-24T01:35:52.149Z,114.22
2023-03-24T01:38:18.814Z,123.63
2023-03-24T01:40:47.259Z,109.00
2023-03-24T01:43:30.943Z,117.70
2023-03-24T01:46:05.034Z,109.22
2023-03-24T01:48:43.815Z,127.55
2023-03-24T01:51:16.413Z,110.63
2023-03-24T01:53:53.413Z,109.57
2023-03-24T01:56:20.850Z,123.78
2023-03-24T01:58:51.628Z,112.53
2023-03-24T02:01:30.331Z,110.45
2023-03-24T02:04:08.028Z,120.13
2023-03-24T02:06:43.433Z,110.60
2023-03-24T02:09:11.753Z,110.43
2023-03-24T02:11:41.121Z,180.57
2023-03-24T02:14:09.046Z,109.82
2023-03-24T02:16:53.922Z,126.40
2023-03-24T02:19:39.666Z,112.47
2023-03-24T02:22:48.860Z,109.82
2023-03-24T02:25:34.322Z,160.00
2023-03-24T02:28:39.101Z,105.93
2023-03-24T02:31:11.896Z,109.40
2023-03-24T02:33:54.295Z,168.40
2023-03-24T02:36:42.780Z,112.00
2023-03-24T02:39:25.368Z,111.30
2023-03-24T02:42:22.618Z,118.32
2023-03-24T02:45:20.236Z,115.97
2023-03-24T02:48:08.471Z,110.75
2023-03-24T02:51:04.859Z,112.90
2023-03-24T02:53:43.767Z,111.68
2023-03-24T02:56:51.131Z,117.53
2023-03-24T02:59:50.776Z,112.50
2023-03-24T03:02:41.516Z,119.38
2023-03-24T03:05:32.367Z,161.73
2023-03-24T03:08:02.387Z,134.75
2023-03-24T03:10:37.653Z,112.78
2023-03-24T03:13:11.271Z,115.45
2023-03-24T03:15:42.509Z,124.03
2023-03-24T03:18:16.533Z,114.78
2023-03-24T03:20:50.721Z,158.48
2023-03-24T03:23:40.122Z,117.57
2023-03-24T03:26:12.426Z,115.43
2023-03-24T03:28:50.212Z,127.43
2023-03-24T03:31:29.662Z,123.68
2023-03-24T03:34:03.716Z,135.50
2023-03-24T03:36:38.578Z,118.88
2023-03-24T03:39:16.175Z,196.82
2023-03-24T03:41:44.636Z,119.53
2023-03-24T03:44:11.380Z,127.25
2023-03-24T03:46:40.332Z,114.07
2023-03-24T03:49:09.941Z,130.95
2023-03-24T03:51:36.960Z,115.95
2023-03-24T03:54:06.817Z,203.43
2023-03-24T03:56:35.683Z,119.65
2023-03-24T03:59:34.116Z,120.82
2023-03-24T04:02:28.163Z,185.63
2023-03-24T04:05:14.118Z,129.48
2023-03-24T04:08:06.031Z,115.60
2023-03-24T04:11:04.071Z,131.82
2023-03-24T04:13:49.188Z,112.85
2023-03-24T04:16:46.049Z,111.25
2023-03-24T04:22:17.902Z,171.38
2023-03-24T04:24:50.650Z,115.53
2023-03-24T04:27:28.776Z,112.03
2023-03-24T04:30:23.041Z,170.75
2023-03-24T04:32:54.700Z,135.70
2023-03-24T04:35:33.897Z,108.10
2023-03-24T04:38:23.156Z,110.53
2023-03-24T04:40:57.582Z,162.73
2023-03-24T04:43:27.900Z,111.32
2023-03-24T04:45:57.695Z,125.90
2023-03-24T04:48:39.817Z,108.18
2023-03-24T04:51:12.178Z,152.80
2023-03-24T04:54:00.366Z,156.38
2023-03-24T04:56:40.242Z,107.75
2023-03-24T04:59:12.727Z,148.40
2023-03-24T05:01:40.177Z,106.75
2023-03-24T05:04:28.522Z,108.50
2023-03-24T05:06:57.841Z,242.60
2023-03-24T05:09:26.349Z,105.22
2023-03-24T05:11:52.971Z,117.85
2023-03-24T05:14:21.523Z,106.80
2023-03-24T05:16:48.597Z,111.82
2023-03-24T05:19:18.207Z,106.18
2023-03-24T05:21:45.639Z,111.95
2023-03-24T05:24:12.415Z,111.90
2023-03-24T05:26:39.264Z,103.88
2023-03-24T05:29:11.008Z,140.05
2023-03-24T05:31:39.131Z,102.47
2023-03-24T05:34:10.269Z,115.60
2023-03-24T05:37:03.316Z,127.32
2023-03-24T05:39:29.873Z,103.75
2023-03-24T05:42:03.227Z,124.25
2023-03-24T05:44:29.881Z,105.20
2023-03-24T05:47:16.262Z,102.88
2023-03-24T05:49:43.550Z,101.97
2023-03-24T05:52:10.752Z,114.32
2023-03-24T05:54:39.412Z,101.50
2023-03-24T05:57:16.385Z,105.20
2023-03-24T06:00:01.525Z,178.90
2023-03-24T06:02:51.851Z,115.50
2023-03-24T06:08:01.389Z,121.97
2023-03-24T06:10:30.800Z,100.82
2023-03-24T06:12:58.428Z,124.93
2023-03-24T06:15:27.479Z,100.30
2023-03-24T06:17:57.787Z,124.47
2023-03-24T06:20:33.963Z,102.05
2023-03-24T06:23:08.327Z,142.27
2023-03-24T06:25:47.651Z,157.27
2023-03-24T06:28:26.147Z,102.13
2023-03-24T06:30:56.594Z,123.82
2023-03-24T06:33:30.833Z,100.55
2023-03-24T06:35:59.995Z,123.82
2023-03-24T06:38:26.681Z,100.55
2023-03-24T06:40:53.476Z,118.78
2023-03-24T06:43:20.421Z,116.47
2023-03-24T06:45:47.255Z,100.30
2023-03-24T06:48:20.939Z,114.68
2023-03-24T06:50:48.908Z,124.43
2023-03-24T06:53:16.958Z,104.75
2023-03-24T06:55:44.020Z,183.40
2023-03-24T06:58:12.618Z,107.28
2023-03-24T07:01:02.125Z,119.07
2023-03-24T07:04:06.985Z,110.22
2023-03-24T07:07:00.842Z,136.40
2023-03-24T07:09:32.594Z,118.68
2023-03-24T07:11:59.112Z,122.90
2023-03-24T07:14:26.554Z,121.32
2023-03-24T07:16:54.563Z,142.13
2023-03-24T07:19:32.282Z,140.75
2023-03-24T07:22:24.800Z,150.07
2023-03-24T07:25:14.158Z,207.70
2023-03-24T07:27:48.338Z,209.07
2023-03-24T07:30:17.194Z,250.68
2023-03-24T07:32:44.944Z,301.52
2023-03-24T07:35:12.822Z,272.17
2023-03-24T07:37:39.606Z,251.18
2023-03-24T07:40:11.978Z,268.65
2023-03-24T07:42:39.766Z,256.35
2023-03-24T07:45:24.959Z,257.88
2023-03-24T07:47:51.581Z,285.00
2023-03-24T07:50:18.352Z,299.33
2023-03-24T07:52:47.945Z,292.27
2023-03-24T07:55:16.710Z,306.40
2023-03-24T07:58:09.382Z,275.92
2023-03-24T08:00:39.624Z,305.58
2023-03-24T08:03:17.723Z,246.45
2023-03-24T08:05:49.090Z,284.38
2023-03-24T08:08:22.009Z,263.70
2023-03-24T08:10:50.089Z,296.10
2023-03-24T08:13:16.971Z,273.90
2023-03-24T08:15:43.976Z,2.33
2023-03-24T08:18:10.580Z,2.70
2023-03-24T08:20:37.104Z,2.38
2023-03-24T08:23:04.666Z,2.88
2023-03-24T08:25:31.934Z,2.72
2023-03-24T08:27:58.577Z,178.10
2023-03-24T08:30:26.522Z,2.80
2023-03-24T08:32:55.961Z,2.67
2023-03-24T08:35:25.674Z,2.63
2023-03-24T08:37:52.634Z,2.80
2023-03-24T08:40:23.270Z,121.53
2023-03-24T08:42:58.181Z,2.95
2023-03-24T08:45:27.493Z,2.75
2023-03-24T08:47:55.397Z,2.47
2023-03-24T08:50:24.152Z,2.55
2023-03-24T08:52:50.693Z,2.72
2023-03-24T08:55:18.892Z,2.95
2023-03-24T08:57:45.587Z,2.60
2023-03-24T09:00:16.122Z,2.72
2023-03-24T09:02:43.790Z,2.65
2023-03-24T09:05:11.244Z,2.20
2023-03-24T09:07:37.795Z,2.40
2023-03-24T09:10:08.637Z,2.60
2023-03-24T09:12:36.454Z,2.08
2023-03-24T09:15:04.060Z,2.83
2023-03-24T09:17:31.037Z,3.13
2023-03-24T09:19:58.142Z,2.47
2023-03-24T09:22:25.860Z,2.67
2023-03-24T09:24:53.589Z,2.60
2023-03-24T09:27:20.258Z,2.40
2023-03-24T09:29:47.470Z,2.55
2023-03-24T09:32:14.004Z,2.90
2023-03-24T09:34:40.687Z,3.03
2023-03-24T09:37:07.373Z,2.55
2023-03-24T09:39:36.433Z,3.13
2023-03-24T09:42:06.663Z,2.60
2023-03-24T09:44:40.471Z,2.47
2023-03-24T09:47:26.663Z,2.33
2023-03-24T09:49:54.034Z,2.60
2023-03-24T09:52:25.423Z,2.47
2023-03-24T09:57:40.820Z,3.03
2023-03-24T10:00:21.329Z,2.47
2023-03-24T10:02:49.735Z,1.98
2023-03-24T10:05:23.135Z,2.67
2023-03-24T10:08:23.459Z,2.22
2023-03-24T10:11:01.769Z,2.17
2023-03-24T10:13:40.936Z,3.05
2023-03-24T10:16:28.174Z,2.42
2023-03-24T10:19:24.953Z,2.03
2023-03-24T10:22:01.554Z,2.45
2023-03-24T10:24:36.630Z,2.72
2023-03-24T10:27:36.139Z,2.97
2023-03-24T10:30:24.198Z,2.60
2023-03-24T10:32:50.848Z,2.95
2023-03-24T10:35:27.805Z,3.42
2023-03-24T10:37:57.996Z,2.72
2023-03-24T10:40:33.332Z,2.58
2023-03-24T10:43:07.289Z,2.50
2023-03-24T10:45:39.025Z,3.20
2023-03-24T10:48:05.885Z,2.80
2023-03-24T10:50:33.600Z,3.05
2023-03-24T10:53:00.153Z,3.35
2023-03-24T10:55:31.430Z,2.53
2023-03-24T10:57:59.753Z,2.60
2023-03-24T11:00:29.679Z,3.40
2023-03-24T11:02:59.972Z,2.65
2023-03-24T11:05:33.268Z,2.53
2023-03-24T11:08:17.669Z,2.88
2023-03-24T11:10:44.499Z,2.17
2023-03-24T11:13:27.598Z,2.60
2023-03-24T11:15:57.861Z,2.03
2023-03-24T11:18:24.430Z,2.22
2023-03-24T11:20:59.542Z,2.50
2023-03-24T11:23:33.758Z,2.50
2023-03-24T11:26:06.625Z,2.55
2023-03-24T11:28:47.117Z,2.30
2023-03-24T11:31:24.434Z,2.42
2023-03-24T11:34:02.724Z,1.92
2023-03-24T11:36:30.354Z,2.75
2023-03-24T11:39:03.671Z,2.10
2023-03-24T11:41:30.508Z,2.40
2023-03-24T11:44:38.426Z,2.10
2023-03-24T11:47:22.212Z,2.03
2023-03-24T11:49:51.144Z,1.90
2023-03-24T11:52:23.627Z,2.28
2023-03-24T11:54:50.357Z,2.00
2023-03-24T11:57:24.480Z,2.10
2023-03-24T12:00:00.642Z,2.15
2023-03-24T12:02:59.466Z,2.70
2023-03-24T12:05:28.572Z,2.65
2023-03-24T12:08:13.191Z,2.60
2023-03-24T12:10:52.989Z,2.85
2023-03-24T12:13:49.083Z,2.42
2023-03-24T12:16:20.764Z,2.55
2023-03-24T12:19:21.969Z,1.70
2023-03-24T12:21:54.366Z,2.35
2023-03-24T12:24:46.737Z,2.00
2023-03-24T12:27:57.174Z,2.25
2023-03-24T12:31:03.651Z,2.70
2023-03-24T12:33:38.377Z,2.15
2023-03-24T12:36:22.375Z,2.30
2023-03-24T12:38:56.987Z,2.05
2023-03-24T12:41:32.077Z,1.80
2023-03-24T12:44:22.803Z,1.90
2023-03-24T12:46:55.096Z,2.20
2023-03-24T12:49:46.135Z,1.95
2023-03-24T12:52:25.637Z,2.30
2023-03-24T12:55:04.670Z,1.70
2023-03-24T12:57:36.524Z,2.10
2023-03-24T13:00:08.862Z,1.95
2023-03-24T13:02:54.234Z,2.10
2023-03-24T13:05:24.486Z,2.13
2023-03-24T13:07:57.378Z,1.75
2023-03-24T13:10:28.627Z,2.05
2023-03-24T13:12:57.556Z,1.88
2023-03-24T13:15:31.160Z,1.95
2023-03-24T13:18:09.488Z,1.88
2023-03-24T13:20:44.210Z,1.70
2023-03-24T13:23:29.434Z,1.70
2023-03-24T13:26:38.289Z,1.60
2023-03-24T13:29:48.641Z,2.03
2023-03-24T13:32:22.987Z,1.83
2023-03-24T13:35:01.188Z,2.00
2023-03-24T13:37:43.748Z,1.77
2023-03-24T13:40:24.913Z,1.92
2023-03-24T13:42:56.627Z,2.00
2023-03-24T13:45:27.402Z,1.92
2023-03-24T13:48:10.403Z,1.70
2023-03-24T13:50:46.514Z,1.73
2023-03-24T13:53:14.528Z,1.55
2023-03-24T13:55:48.220Z,1.20
2023-03-24T13:58:20.459Z,1.35
2023-03-24T14:01:15.251Z,1.55
2023-03-24T14:03:43.669Z,1.75
2023-03-24T14:06:45.236Z,1.33
2023-03-24T14:09:22.202Z,1.65
2023-03-24T14:11:54.558Z,1.40
2023-03-24T14:14:23.262Z,1.48
2023-03-24T14:17:03.195Z,1.55
2023-03-24T14:19:45.289Z,1.38
2023-03-24T14:22:11.768Z,1.80
2023-03-24T14:24:39.342Z,1.17
2023-03-24T14:27:34.331Z,1.45
2023-03-24T14:30:10.755Z,1.60
2023-03-24T14:32:39.561Z,1.55
2023-03-24T14:35:21.067Z,1.48
2023-03-24T14:40:29.872Z,1.85
2023-03-24T14:43:03.429Z,1.83
2023-03-24T14:45:32.761Z,1.90
2023-03-24T14:48:01.019Z,1.58
2023-03-24T14:50:27.969Z,2.40
2023-03-24T14:52:57.943Z,2.25
2023-03-24T14:55:25.597Z,2.13
2023-03-24T14:58:00.809Z,1.73
2023-03-24T15:00:51.709Z,1.60
2023-03-24T15:03:28.158Z,2.08
2023-03-24T15:06:04.178Z,1.33
2023-03-24T15:08:30.833Z,1.40
2023-03-24T15:11:02.145Z,1.38
2023-03-24T15:13:33.060Z,1.23
2023-03-24T15:16:00.511Z,1.60
2023-03-24T15:18:27.613Z,1.48
2023-03-24T15:20:54.250Z,1.50
2023-03-24T15:23:28.061Z,1.45
2023-03-24T15:25:56.169Z,1.30
2023-03-24T15:28:30.694Z,1.80
2023-03-24T15:31:01.324Z,1.75
2023-03-24T15:33:30.967Z,1.95
2023-03-24T15:35:59.131Z,2.00
2023-03-24T15:38:33.380Z,2.20
2023-03-24T15:41:09.544Z,2.30
2023-03-24T15:43:45.217Z,1.45
2023-03-24T15:46:38.069Z,1.80
2023-03-24T15:49:04.922Z,1.80
2023-03-24T15:51:49.432Z,4.45
2023-03-24T15:54:26.158Z,92.80
2023-03-24T15:57:03.397Z,2.10
2023-03-24T15:59:35.891Z,1.67
2023-03-24T16:02:08.611Z,2.08
2023-03-24T16:04:37.967Z,2.10
2023-03-24T16:07:05.102Z,2.08
2023-03-24T16:09:40.944Z,1.98
2023-03-24T16:12:13.915Z,1.33
2023-03-24T16:14:42.375Z,1.50
2023-03-24T16:17:11.051Z,1.40
2023-03-24T16:19:41.785Z,1.40
2023-03-24T16:22:11.673Z,1.10
2023-03-24T16:24:38.353Z,1.20
2023-03-24T16:27:05.105Z,1.00
2023-03-24T16:29:31.774Z,1.20
2023-03-24T16:31:58.800Z,1.20
2023-03-24T16:34:26.772Z,1.50
2023-03-24T16:36:54.296Z,1.67
2023-03-24T16:39:26.801Z,1.42
2023-03-24T16:41:55.879Z,1.58
2023-03-24T16:44:23.123Z,1.15
2023-03-24T16:46:52.002Z,1.20
2023-03-24T16:49:19.793Z,1.10
2023-03-24T16:51:47.803Z,0.90
2023-03-24T16:54:14.442Z,1.33
2023-03-24T16:56:41.175Z,1.10
2023-03-24T16:59:09.436Z,1.20
2023-03-24T17:01:38.309Z,1.30
2023-03-24T17:04:12.415Z,1.13
2023-03-24T17:06:41.584Z,1.20
2023-03-24T17:09:09.477Z,1.50
2023-03-24T17:11:41.838Z,1.63
2023-03-24T17:14:12.047Z,1.30
2023-03-24T17:16:43.439Z,1.40
2023-03-24T17:19:18.282Z,1.60
2023-03-24T17:21:48.104Z,1.65
2023-03-24T17:24:16.454Z,1.30
2023-03-24T17:26:43.205Z,1.83
2023-03-24T17:29:12.607Z,1.35
2023-03-24T17:31:39.689Z,1.35
2023-03-24T17:34:20.670Z,1.77
2023-03-24T17:36:50.869Z,1.20
2023-03-24T17:39:18.791Z,1.45
2023-03-24T17:41:45.657Z,1.55
2023-03-24T17:44:12.459Z,3.55
2023-03-24T17:46:40.316Z,1.60
2023-03-24T17:49:07.334Z,1.40
2023-03-24T17:51:35.030Z,1.35
2023-03-24T17:54:04.311Z,1.83
2023-03-24T17:56:31.953Z,1.92
2023-03-24T17:58:59.033Z,1.80
2023-03-24T18:01:29.649Z,1.50
2023-03-24T18:03:57.285Z,1.67
2023-03-24T18:06:24.163Z,2.15
2023-03-24T18:08:51.475Z,1.65
2023-03-24T18:11:18.336Z,1.80
2023-03-24T18:13:45.961Z,1.73
2023-03-24T18:16:21.510Z,2.00
2023-03-24T18:18:49.626Z,1.95
2023-03-24T18:21:17.110Z,2.05
2023-03-24T18:23:43.901Z,1.60
2023-03-24T18:26:10.672Z,1.80
2023-03-24T18:28:38.699Z,2.33
2023-03-24T18:31:12.549Z,1.75
2023-03-24T18:33:39.292Z,2.15
2023-03-24T18:36:06.242Z,1.73
2023-03-24T18:38:32.783Z,2.00
2023-03-24T18:41:04.299Z,1.90
2023-03-24T18:43:34.252Z,2.13
2023-03-24T18:46:00.882Z,2.05
2023-03-24T18:48:27.716Z,2.20
2023-03-24T18:50:54.352Z,2.33
2023-03-24T18:53:22.099Z,2.25
2023-03-24T18:55:51.103Z,2.00
2023-03-24T18:58:18.490Z,3.45
2023-03-24T19:00:50.384Z,2.67
2023-03-24T19:03:17.646Z,2.13
2023-03-24T19:05:44.282Z,2.00
2023-03-24T19:08:15.257Z,2.60
2023-03-24T19:10:45.615Z,2.35
2023-03-24T19:13:14.243Z,2.60
2023-03-24T19:15:41.594Z,2.80
2023-03-24T19:18:08.302Z,2.25
2023-03-24T19:20:35.066Z,2.50
2023-03-24T19:23:02.913Z,2.33
2023-03-24T19:25:29.944Z,3.15
2023-03-24T19:27:56.561Z,2.53
2023-03-24T19:30:23.139Z,2.63
2023-03-24T19:32:49.839Z,2.58
2023-03-24T19:35:16.618Z,2.08
2023-03-24T19:37:43.513Z,2.00
2023-03-24T19:40:15.436Z,1.67
2023-03-24T19:42:44.749Z,1.75
2023-03-24T19:45:13.853Z,2.30
2023-03-24T19:47:40.581Z,1.67
2023-03-24T19:50:07.997Z,1.30
2023-03-24T19:52:35.249Z,1.45
2023-03-24T19:55:02.499Z,1.30
2023-03-24T19:57:33.109Z,1.00
2023-03-24T20:00:00.179Z,1.10
2023-03-24T20:02:26.884Z,0.80
2023-03-24T20:04:55.265Z,1.10
2023-03-24T20:07:23.041Z,1.02
2023-03-24T20:09:49.645Z,0.93
2023-03-24T20:12:16.275Z,1.02
2023-03-24T20:14:42.935Z,1.10
2023-03-24T20:17:17.098Z,1.17
2023-03-24T20:19:44.073Z,1.33
2023-03-24T20:22:10.694Z,1.40
2023-03-24T20:24:40.343Z,1.45
2023-03-24T20:27:07.138Z,1.33
2023-03-24T20:29:33.944Z,1.30
2023-03-24T20:32:00.757Z,1.35
2023-03-24T20:34:28.356Z,1.58
2023-03-24T20:36:54.991Z,1.40
2023-03-24T20:39:21.733Z,1.33
2023-03-24T20:41:48.371Z,1.63
2023-03-24T20:44:15.267Z,1.40
2023-03-24T20:46:43.305Z,3.97
2023-03-24T20:49:14.202Z,1.58
2023-03-24T20:51:41.112Z,1.60
2023-03-24T20:54:08.053Z,1.65
2023-03-24T20:56:34.981Z,1.50
2023-03-24T20:59:02.590Z,1.52
2023-03-24T21:01:35.775Z,1.70
2023-03-24T21:04:09.006Z,1.27
2023-03-24T21:06:39.319Z,1.50
2023-03-24T21:09:06.083Z,2.00
2023-03-24T21:11:33.534Z,1.60
2023-03-24T21:14:01.056Z,1.58
2023-03-24T21:16:27.816Z,1.80
2023-03-24T21:18:55.894Z,2.10
2023-03-24T21:21:22.859Z,2.05
2023-03-24T21:23:52.629Z,2.08
2023-03-24T21:26:19.484Z,2.17
2023-03-24T21:28:46.377Z,1.60
2023-03-24T21:31:20.008Z,1.88
2023-03-24T21:33:46.861Z,1.70
2023-03-24T21:36:13.809Z,1.65
2023-03-24T21:38:40.588Z,1.88
2023-03-24T21:41:07.902Z,1.30
2023-03-24T21:43:34.816Z,1.08
2023-03-24T21:46:03.397Z,1.30
2023-03-24T21:48:32.753Z,1.52
2023-03-24T21:51:00.218Z,1.30
2023-03-24T21:53:26.990Z,1.13
2023-03-24T21:56:04.526Z,1.33
2023-03-24T21:58:32.409Z,1.17
2023-03-24T22:01:00.033Z,1.10
2023-03-24T22:03:27.559Z,1.08
2023-03-24T22:05:56.595Z,1.33
2023-03-24T22:08:26.442Z,1.17
2023-03-24T22:10:57.993Z,1.00
2023-03-24T22:13:28.307Z,0.93
2023-03-24T22:15:56.157Z,1.00
2023-03-24T22:18:24.249Z,1.05
2023-03-24T22:21:03.109Z,1.30
2023-03-24T22:23:33.484Z,1.20
2023-03-24T22:26:06.077Z,1.10
2023-03-24T22:28:33.901Z,1.33
2023-03-24T22:31:04.890Z,1.33
2023-03-24T22:33:31.609Z,1.30
2023-03-24T22:35:59.054Z,1.33
2023-03-24T22:38:26.041Z,1.20
2023-03-24T22:41:00.279Z,1.02
2023-03-24T22:43:27.993Z,1.75
2023-03-24T22:45:54.952Z,1.30
2023-03-24T22:48:21.617Z,1.30
2023-03-24T22:50:48.689Z,1.15
2023-03-24T22:53:15.569Z,1.30
2023-03-24T22:55:44.429Z,1.50
2023-03-24T22:58:13.061Z,1.10
2023-03-24T23:00:43.189Z,1.30
2023-03-24T23:03:10.340Z,1.20
2023-03-24T23:05:45.226Z,2.15
2023-03-24T23:08:14.225Z,1.25
2023-03-24T23:10:43.029Z,1.30
2023-03-24T23:13:10.459Z,1.30
2023-03-24T23:15:38.313Z,1.23
2023-03-24T23:18:05.169Z,1.20
2023-03-24T23:20:31.752Z,1.30
2023-03-24T23:22:58.363Z,1.13
2023-03-24T23:25:25.863Z,1.15
2023-03-24T23:27:52.436Z,1.45
2023-03-24T23:30:19.676Z,1.20
2023-03-24T23:32:46.718Z,1.40
2023-03-24T23:35:14.111Z,1.17
2023-03-24T23:37:40.615Z,1.10
2023-03-24T23:40:12.770Z,1.42
2023-03-24T23:42:45.270Z,1.10
2023-03-24T23:45:17.812Z,1.00
2023-03-24T23:47:50.406Z,1.50
2023-03-24T23:50:18.627Z,1.40
2023-03-24T23:52:45.329Z,1.50
2023-03-24T23:55:16.294Z,1.33
2023-03-24T23:57:43.130Z,1.80
